Time;durP1;ratioP1;P1;durP2;ratioP2;P2;SDS_P1;SDS_P2;PMS_P1;PMS_P2;Temp;Humidity;BMP_temperature;BMP_pressure;BME280_temperature;BME280_humidity;BME280_pressure;Samples;Min_cycle;Max_cycle;Signal;HPM_P1;HPM_P2
2023/08/25 00:00:00;;;;;;;0.00;0.00;;;21.90;99.90;;;;;;5091129;28;20108;-72
2023/08/25 00:02:26;;;;;;;0.00;0.00;;;21.90;99.90;;;;;;5091205;28;20388;-72
2023/08/25 00:04:52;;;;;;;0.00;0.00;;;21.80;99.90;;;;;;5092271;28;20395;-73
2023/08/25 00:07:18;;;;;;;0.10;0.10;;;21.80;99.90;;;;;;5092585;28;20031;-71
2023/08/25 00:09:45;;;;;;;0.00;0.00;;;21.60;99.90;;;;;;5092746;28;20028;-72
2023/08/25 00:12:12;;;;;;;0.00;0.00;;;21.50;99.90;;;;;;5094572;28;20020;-72
2023/08/25 00:14:37;;;;;;;0.03;0.03;;;21.70;99.90;;;;;;5096503;28;20036;-71
2023/08/25 00:17:03;;;;;;;0.00;0.00;;;21.60;99.90;;;;;;5096596;28;20028;-71
2023/08/25 00:19:29;;;;;;;0.00;0.00;;;21.60;99.90;;;;;;5096835;28;20038;-72
2023/08/25 00:21:55;;;;;;;0.00;0.00;;;21.50;99.90;;;;;;5096545;28;20020;-71
2023/08/25 00:24:21;;;;;;;0.00;0.00;;;21.60;99.90;;;;;;5096764;28;20230;-71
2023/08/25 00:26:47;;;;;;;0.00;0.00;;;21.60;99.90;;;;;;5096387;28;20047;-71
2023/08/25 00:29:13;;;;;;;0.00;0.00;;;21.70;99.90;;;;;;5096188;28;20373;-72
2023/08/25 00:31:38;;;;;;;0.35;0.35;;;21.80;99.90;;;;;;5096487;28;20024;-72
2023/08/25 00:34:04;;;;;;;0.00;0.00;;;21.60;99.90;;;;;;5108937;28;20035;-71
2023/08/25 00:36:30;;;;;;;0.00;0.00;;;21.60;99.90;;;;;;5108115;28;20059;-71
2023/08/25 00:38:56;;;;;;;0.00;0.00;;;21.60;99.90;;;;;;5077643;28;20055;-71
2023/08/25 00:41:23;;;;;;;0.00;0.00;;;21.50;99.90;;;;;;5094671;28;20039;-71
2023/08/25 00:43:51;;;;;;;0.00;0.00;;;21.60;99.90;;;;;;5095676;28;20028;-71
2023/08/25 00:46:19;;;;;;;0.00;0.00;;;21.60;99.90;;;;;;5098659;28;20035;-71
2023/08/25 00:48:45;;;;;;;0.00;0.00;;;21.50;99.90;;;;;;5097764;28;20028;-71
2023/08/25 00:51:12;;;;;;;0.00;0.00;;;21.60;99.90;;;;;;5101784;28;20031;-71
2023/08/25 00:53:40;;;;;;;0.00;0.00;;;21.70;99.90;;;;;;5102223;28;20032;-71
2023/08/25 00:56:07;;;;;;;0.00;0.00;;;21.70;99.90;;;;;;5105956;28;20019;-71
2023/08/25 00:58:34;;;;;;;0.00;0.00;;;21.50;99.90;;;;;;5105712;28;20019;-71
2023/08/25 01:01:03;;;;;;;0.00;0.00;;;21.50;99.90;;;;;;5104633;28;20069;-70
2023/08/25 01:03:29;;;;;;;0.00;0.00;;;21.40;99.90;;;;;;5089567;28;20028;-71
2023/08/25 01:05:55;;;;;;;2.15;2.05;;;21.30;99.90;;;;;;5097950;28;20472;-71
2023/08/25 01:08:22;;;;;;;0.00;0.00;;;21.20;99.90;;;;;;5095408;28;20020;-71
2023/08/25 01:11:20;;;;;;;0.00;0.00;;;21.20;99.90;;;;;;5095687;28;20024;-71
2023/08/25 01:14:09;;;;;;;0.00;0.00;;;21.30;99.90;;;;;;5097116;28;20058;-72
2023/08/25 01:17:05;;;;;;;0.00;0.00;;;21.30;99.90;;;;;;5100613;28;20032;-72
2023/08/25 01:19:50;;;;;;;0.00;0.00;;;21.10;99.90;;;;;;5065341;28;20037;-73
2023/08/25 01:22:32;;;;;;;0.00;0.00;;;21.20;99.90;;;;;;5103809;28;20101;-73
2023/08/25 01:25:19;;;;;;;0.00;0.00;;;21.40;99.90;;;;;;5107969;28;20020;-72
2023/08/25 01:27:45;;;;;;;0.00;0.00;;;21.50;99.90;;;;;;5099825;28;20476;-71
2023/08/25 01:30:13;;;;;;;0.00;0.00;;;21.60;99.90;;;;;;5110117;28;20490;-73
2023/08/25 01:32:40;;;;;;;0.00;0.00;;;21.60;99.90;;;;;;5108921;28;20031;-78
2023/08/25 01:35:06;;;;;;;0.00;0.00;;;21.60;99.90;;;;;;5112652;28;20032;-80
2023/08/25 01:37:38;;;;;;;0.10;0.10;;;21.70;99.90;;;;;;5096696;28;20060;-79
2023/08/25 01:40:13;;;;;;;0.00;0.00;;;21.60;99.90;;;;;;5092914;28;20468;-79
2023/08/25 01:42:43;;;;;;;0.00;0.00;;;21.40;99.90;;;;;;5092040;28;20115;-79
2023/08/25 01:45:10;;;;;;;0.00;0.00;;;21.30;99.90;;;;;;5102537;28;20028;-78
2023/08/25 01:47:38;;;;;;;0.22;0.22;;;21.60;99.90;;;;;;5103926;28;20042;-77
2023/08/25 01:50:07;;;;;;;0.00;0.00;;;21.60;99.90;;;;;;5112171;28;20111;-78
2023/08/25 01:52:33;;;;;;;0.45;0.45;;;21.60;99.90;;;;;;5112107;28;20039;-79
2023/08/25 01:54:59;;;;;;;0.00;0.00;;;21.60;99.90;;;;;;5110096;28;20048;-78
2023/08/25 01:57:27;;;;;;;0.00;0.00;;;21.50;99.90;;;;;;5099611;28;20020;-78
2023/08/25 01:59:53;;;;;;;0.00;0.00;;;21.30;99.90;;;;;;5093101;28;20475;-79
2023/08/25 02:02:19;;;;;;;0.00;0.00;;;21.50;99.90;;;;;;5092426;28;20060;-78
2023/08/25 02:04:45;;;;;;;0.00;0.00;;;21.70;99.90;;;;;;5052642;28;1177041;-78
2023/08/25 02:07:10;;;;;;;0.00;0.00;;;21.70;99.90;;;;;;5093639;28;20031;-78
2023/08/25 02:09:38;;;;;;;0.00;0.00;;;21.60;99.90;;;;;;5093321;28;20020;-77
2023/08/25 02:12:03;;;;;;;0.20;0.20;;;21.30;99.90;;;;;;5093149;28;20026;-79
2023/08/25 02:14:29;;;;;;;0.08;0.08;;;21.40;99.90;;;;;;5092860;28;20403;-74
2023/08/25 02:16:55;;;;;;;0.00;0.00;;;21.30;99.90;;;;;;5093285;28;20020;-80
2023/08/25 02:19:21;;;;;;;0.00;0.00;;;21.50;99.90;;;;;;5094332;28;20035;-79
2023/08/25 02:21:51;;;;;;;1.65;0.85;;;21.70;99.90;;;;;;5092979;28;20058;-79
2023/08/25 02:24:19;;;;;;;0.40;0.40;;;21.50;99.90;;;;;;5093445;28;20032;-71
2023/08/25 02:26:44;;;;;;;0.00;0.00;;;21.40;99.90;;;;;;5092830;28;20480;-71
2023/08/25 02:29:10;;;;;;;0.00;0.00;;;21.60;99.90;;;;;;5092972;28;20491;-72
2023/08/25 02:31:38;;;;;;;0.00;0.00;;;21.60;99.90;;;;;;5093892;28;20042;-71
2023/08/25 02:34:04;;;;;;;0.80;0.80;;;21.70;99.90;;;;;;5093273;28;20472;-70
2023/08/25 02:36:31;;;;;;;0.03;0.03;;;21.70;99.90;;;;;;5094149;28;20040;-71
2023/08/25 02:38:58;;;;;;;0.20;0.20;;;21.80;99.90;;;;;;5092763;28;20012;-71
2023/08/25 02:41:24;;;;;;;0.00;0.00;;;21.60;99.90;;;;;;5093863;28;20114;-71
2023/08/25 02:43:49;;;;;;;0.00;0.00;;;21.60;99.90;;;;;;5096081;28;20028;-71
2023/08/25 02:46:15;;;;;;;0.20;0.20;;;21.50;99.90;;;;;;5109574;28;20554;-71
2023/08/25 02:48:41;;;;;;;0.00;0.00;;;21.60;99.90;;;;;;5103651;28;20023;-72
2023/08/25 02:51:07;;;;;;;0.00;0.00;;;21.60;99.90;;;;;;5110577;28;20031;-72
2023/08/25 02:53:32;;;;;;;0.00;0.00;;;21.70;99.90;;;;;;5111037;27;20028;-72
2023/08/25 02:55:58;;;;;;;0.00;0.00;;;21.70;99.90;;;;;;5105157;28;20028;-71
2023/08/25 02:58:24;;;;;;;0.00;0.00;;;21.70;99.90;;;;;;5093815;28;20027;-71
2023/08/25 03:00:50;;;;;;;0.00;0.00;;;21.80;99.90;;;;;;5095207;28;20032;-71
2023/08/25 03:03:15;;;;;;;0.00;0.00;;;21.50;99.90;;;;;;5096613;28;20031;-72
2023/08/25 03:05:41;;;;;;;0.00;0.00;;;21.70;99.90;;;;;;5095493;28;20027;-71
2023/08/25 03:08:12;;;;;;;0.00;0.00;;;21.70;99.90;;;;;;5076749;28;20031;-72
2023/08/25 03:10:43;;;;;;;0.00;0.00;;;21.80;99.90;;;;;;5097762;28;20035;-71
2023/08/25 03:13:08;;;;;;;0.10;0.10;;;21.90;99.90;;;;;;5104795;28;20480;-71
2023/08/25 03:15:35;;;;;;;0.00;0.00;;;21.80;99.90;;;;;;5092225;28;20046;-71
2023/08/25 03:18:01;;;;;;;0.00;0.00;;;21.90;99.90;;;;;;5092684;28;20112;-72
2023/08/25 03:20:28;;;;;;;0.00;0.00;;;21.90;99.90;;;;;;5092027;28;20063;-71
2023/08/25 03:22:57;;;;;;;0.00;0.00;;;21.90;99.90;;;;;;5081422;28;20469;-71
2023/08/25 03:25:23;;;;;;;0.47;0.17;;;21.80;99.90;;;;;;5093114;28;20468;-72
2023/08/25 03:27:49;;;;;;;0.00;0.00;;;21.80;99.90;;;;;;5091490;28;20031;-71
2023/08/25 03:30:15;;;;;;;0.10;0.10;;;21.70;99.90;;;;;;5091729;28;20020;-71
2023/08/25 03:32:41;;;;;;;0.00;0.00;;;21.70;99.90;;;;;;5091874;28;20506;-71
2023/08/25 03:35:08;;;;;;;2.47;2.28;;;21.70;99.90;;;;;;5091467;28;20059;-72
2023/08/25 03:37:33;;;;;;;0.10;0.10;;;21.80;99.90;;;;;;5091464;28;20028;-71
2023/08/25 03:40:03;;;;;;;0.00;0.00;;;21.70;99.90;;;;;;5092377;28;20028;-72
2023/08/25 03:42:29;;;;;;;0.00;0.00;;;21.70;99.90;;;;;;5091806;28;20090;-71
2023/08/25 03:44:56;;;;;;;0.00;0.00;;;21.80;99.90;;;;;;5091369;28;20541;-72
2023/08/25 03:47:21;;;;;;;0.00;0.00;;;21.80;99.90;;;;;;5093112;28;20031;-71
2023/08/25 03:49:50;;;;;;;0.00;0.00;;;21.80;99.90;;;;;;5091201;28;20431;-71
2023/08/25 03:52:15;;;;;;;0.00;0.00;;;21.90;99.90;;;;;;5091085;28;20110;-72
2023/08/25 03:54:41;;;;;;;0.00;0.00;;;21.90;99.90;;;;;;5061860;28;20494;-71
2023/08/25 03:57:08;;;;;;;0.00;0.00;;;21.90;99.90;;;;;;5104639;28;20017;-71
2023/08/25 03:59:34;;;;;;;0.15;0.13;;;21.90;99.90;;;;;;5084552;28;20056;-72
2023/08/25 04:02:03;;;;;;;3.63;2.45;;;21.80;99.90;;;;;;5091051;28;20077;-71
2023/08/25 04:04:31;;;;;;;0.00;0.00;;;21.70;99.90;;;;;;5091156;28;20032;-71
2023/08/25 04:06:57;;;;;;;0.00;0.00;;;21.50;99.90;;;;;;5090936;28;20075;-71
2023/08/25 04:09:23;;;;;;;0.00;0.00;;;21.40;99.90;;;;;;5091322;28;20051;-72
2023/08/25 04:11:49;;;;;;;0.13;0.13;;;21.50;99.90;;;;;;5092729;28;20059;-71
2023/08/25 04:14:15;;;;;;;0.00;0.00;;;21.30;99.90;;;;;;5091148;28;20434;-78
2023/08/25 04:16:42;;;;;;;0.00;0.00;;;21.30;99.90;;;;;;5091529;28;20151;-79
2023/08/25 04:19:08;;;;;;;0.00;0.00;;;21.40;99.90;;;;;;5091316;28;20567;-80
2023/08/25 04:21:34;;;;;;;1.23;0.57;;;21.40;99.90;;;;;;5090905;28;20031;-80
2023/08/25 04:24:00;;;;;;;0.10;0.10;;;21.40;99.90;;;;;;5092448;28;20372;-80
2023/08/25 04:26:26;;;;;;;0.00;0.00;;;21.20;99.90;;;;;;5091201;28;20062;-79
2023/08/25 04:28:52;;;;;;;0.00;0.00;;;21.20;99.90;;;;;;5091156;28;20593;-78
2023/08/25 04:31:18;;;;;;;0.00;0.00;;;21.30;99.90;;;;;;5091171;28;20102;-79
2023/08/25 04:33:48;;;;;;;0.00;0.00;;;21.40;99.90;;;;;;5091110;28;20119;-78
2023/08/25 04:36:15;;;;;;;0.20;0.20;;;21.40;99.90;;;;;;5090749;28;20507;-80
2023/08/25 04:38:41;;;;;;;0.00;0.00;;;21.40;99.90;;;;;;5090932;28;20032;-79
2023/08/25 04:41:06;;;;;;;0.00;0.00;;;21.40;99.90;;;;;;5090997;28;20065;-76
2023/08/25 04:43:32;;;;;;;0.00;0.00;;;21.50;99.90;;;;;;5090957;28;20387;-79
2023/08/25 04:45:58;;;;;;;0.00;0.00;;;21.60;99.90;;;;;;5091175;28;20028;-79
2023/08/25 04:48:24;;;;;;;0.00;0.00;;;21.50;99.90;;;;;;5091031;28;20020;-79
2023/08/25 04:50:50;;;;;;;5.60;5.07;;;21.40;99.90;;;;;;5090176;28;20028;-78
2023/08/25 04:53:16;;;;;;;0.10;0.10;;;21.30;99.90;;;;;;5090785;28;20023;-78
2023/08/25 04:55:42;;;;;;;0.00;0.00;;;21.30;99.90;;;;;;5091190;28;20391;-79
2023/08/25 04:58:08;;;;;;;0.20;0.20;;;21.30;99.90;;;;;;5092876;28;20056;-78
2023/08/25 05:00:34;;;;;;;0.00;0.00;;;21.20;99.90;;;;;;5078046;28;20034;-79
2023/08/25 05:03:00;;;;;;;0.00;0.00;;;21.20;99.90;;;;;;5095103;28;20460;-78
2023/08/25 05:05:26;;;;;;;0.25;0.25;;;21.50;99.90;;;;;;5076533;28;20071;-75
2023/08/25 05:07:54;;;;;;;0.00;0.00;;;21.50;99.90;;;;;;5093111;28;20085;-80
2023/08/25 05:10:20;;;;;;;0.00;0.00;;;21.50;99.90;;;;;;5093947;28;20391;-76
2023/08/25 05:12:46;;;;;;;0.68;0.68;;;21.60;99.90;;;;;;5093615;28;20409;-79
2023/08/25 05:15:13;;;;;;;0.00;0.00;;;21.80;99.90;;;;;;5094153;28;20029;-80
2023/08/25 05:17:39;;;;;;;0.00;0.00;;;21.80;99.90;;;;;;5094086;28;20092;-80
2023/08/25 05:20:09;;;;;;;0.20;0.20;;;21.50;99.90;;;;;;5095455;28;20061;-79
2023/08/25 05:22:35;;;;;;;3.20;1.35;;;21.60;99.90;;;;;;5094124;28;20106;-77
2023/08/25 05:25:01;;;;;;;0.00;0.00;;;21.60;99.90;;;;;;5093939;28;20065;-80
2023/08/25 05:27:27;;;;;;;0.75;0.75;;;21.60;99.90;;;;;;5094204;28;20020;-79
2023/08/25 05:29:56;;;;;;;0.00;0.00;;;21.20;99.90;;;;;;5094482;28;20024;-72
2023/08/25 05:32:23;;;;;;;0.00;0.00;;;21.30;99.90;;;;;;5094118;28;20468;-72
2023/08/25 05:35:17;;;;;;;0.00;0.00;;;21.50;99.90;;;;;;5094018;28;20043;-72
2023/08/25 05:37:43;;;;;;;1.38;1.27;;;21.40;99.90;;;;;;5093955;28;20032;-73
2023/08/25 05:40:10;;;;;;;0.00;0.00;;;21.50;99.90;;;;;;5093889;28;20027;-72
2023/08/25 05:42:39;;;;;;;0.00;0.00;;;21.60;99.90;;;;;;5093923;28;20078;-72
2023/08/25 05:45:07;;;;;;;0.00;0.00;;;21.80;99.90;;;;;;5093700;28;20024;-75
2023/08/25 05:47:33;;;;;;;0.25;0.25;;;21.70;99.90;;;;;;5093715;28;20024;-72
2023/08/25 05:49:59;;;;;;;0.00;0.00;;;21.50;99.90;;;;;;5094847;28;20063;-73
2023/08/25 05:52:24;;;;;;;0.28;0.28;;;21.40;99.90;;;;;;5102290;28;20058;-72
2023/08/25 05:54:50;;;;;;;0.30;0.30;;;21.20;99.90;;;;;;5107468;27;20039;-76
2023/08/25 05:57:16;;;;;;;1.13;1.08;;;21.00;99.90;;;;;;5109589;28;20034;-73
2023/08/25 05:59:42;;;;;;;0.00;0.00;;;20.90;99.90;;;;;;5088397;28;20032;-75
2023/08/25 06:02:08;;;;;;;0.43;0.35;;;21.00;99.90;;;;;;5087723;28;20031;-74
2023/08/25 06:04:33;;;;;;;1.10;1.00;;;21.20;99.90;;;;;;5091915;28;20074;-73
2023/08/25 06:06:59;;;;;;;2.58;2.05;;;21.00;99.90;;;;;;5088316;28;20107;-73
2023/08/25 06:09:25;;;;;;;0.00;0.00;;;20.80;99.90;;;;;;5086497;28;20052;-73
2023/08/25 06:11:52;;;;;;;0.30;0.30;;;21.20;99.90;;;;;;5094722;28;20417;-72
2023/08/25 06:14:19;;;;;;;0.50;0.50;;;21.20;99.90;;;;;;5095428;28;20048;-73
2023/08/25 06:16:45;;;;;;;4.13;1.35;;;21.00;99.90;;;;;;5098388;28;20461;-74
2023/08/25 06:19:12;;;;;;;0.85;0.35;;;20.80;99.90;;;;;;5102008;28;20035;-72
2023/08/25 06:21:38;;;;;;;0.00;0.00;;;21.00;99.90;;;;;;5105440;28;20514;-73
2023/08/25 06:24:04;;;;;;;1.65;0.65;;;21.00;99.90;;;;;;5108022;28;20047;-72
2023/08/25 06:26:30;;;;;;;0.63;0.63;;;21.10;99.90;;;;;;5103501;28;20067;-72
2023/08/25 06:28:56;;;;;;;0.80;0.68;;;21.00;99.90;;;;;;5102613;28;20048;-72
2023/08/25 06:31:22;;;;;;;0.00;0.00;;;21.10;99.90;;;;;;5105112;28;20593;-72
2023/08/25 06:33:48;;;;;;;0.95;0.88;;;21.40;99.90;;;;;;5111832;28;20027;-74
2023/08/25 06:36:14;;;;;;;0.00;0.00;;;21.60;99.90;;;;;;5100373;28;20028;-73
2023/08/25 06:38:39;;;;;;;0.00;0.00;;;21.70;99.90;;;;;;5095812;28;20848;-72
2023/08/25 06:41:05;;;;;;;0.00;0.00;;;21.70;99.90;;;;;;5105281;28;20023;-73
2023/08/25 06:43:31;;;;;;;0.00;0.00;;;22.00;99.90;;;;;;5109235;28;20035;-72
2023/08/25 06:45:57;;;;;;;0.10;0.10;;;21.70;99.90;;;;;;5096116;28;20024;-72
2023/08/25 06:48:23;;;;;;;1.27;1.17;;;21.70;99.90;;;;;;5091353;28;20063;-73
2023/08/25 06:50:49;;;;;;;1.17;1.17;;;21.90;99.90;;;;;;5089388;28;20039;-73
2023/08/25 06:53:15;;;;;;;2.15;1.80;;;21.80;99.90;;;;;;5086689;28;20028;-71
2023/08/25 06:55:41;;;;;;;0.10;0.10;;;21.90;99.90;;;;;;5095103;28;20380;-73
2023/08/25 06:58:07;;;;;;;8.68;4.22;;;21.80;99.90;;;;;;5099860;28;20035;-73
2023/08/25 07:00:34;;;;;;;2.75;1.15;;;21.50;99.90;;;;;;5084191;28;20145;-75
2023/08/25 07:03:01;;;;;;;0.55;0.40;;;21.70;99.90;;;;;;5084495;28;20436;-77
2023/08/25 07:05:27;;;;;;;0.35;0.35;;;21.60;99.90;;;;;;5089806;28;20445;-77
2023/08/25 07:07:53;;;;;;;1.40;1.30;;;21.70;99.90;;;;;;5094364;28;20072;-73
2023/08/25 07:10:20;;;;;;;1.40;1.20;;;21.50;99.90;;;;;;5091929;28;20075;-77
2023/08/25 07:12:46;;;;;;;0.85;0.80;;;21.50;99.90;;;;;;5089437;28;20476;-77
2023/08/25 07:15:12;;;;;;;1.42;1.10;;;21.30;99.90;;;;;;5091834;28;20035;-75
2023/08/25 07:17:38;;;;;;;1.10;0.25;;;21.20;99.90;;;;;;5095416;28;20476;-76
2023/08/25 07:20:04;;;;;;;0.00;0.00;;;21.20;99.90;;;;;;5105284;28;20019;-77
2023/08/25 07:22:33;;;;;;;1.00;1.00;;;21.40;99.90;;;;;;5092196;28;20051;-75
2023/08/25 07:24:58;;;;;;;0.40;0.40;;;21.30;99.90;;;;;;5085946;28;20036;-73
2023/08/25 07:27:25;;;;;;;1.00;0.90;;;21.30;99.90;;;;;;5089225;28;20425;-76
2023/08/25 07:29:53;;;;;;;0.00;0.00;;;21.50;99.90;;;;;;5091534;28;20035;-76
2023/08/25 07:32:20;;;;;;;0.00;0.00;;;21.80;99.90;;;;;;5095688;28;20022;-77
2023/08/25 07:34:46;;;;;;;1.20;1.08;;;22.10;99.90;;;;;;5091783;28;20376;-76
2023/08/25 07:37:12;;;;;;;1.23;1.10;;;22.20;99.90;;;;;;5091618;28;20043;-77
2023/08/25 07:39:41;;;;;;;0.00;0.00;;;22.20;99.90;;;;;;5092899;28;20826;-76
2023/08/25 07:42:08;;;;;;;0.52;0.52;;;22.30;99.90;;;;;;5093289;28;20464;-76
2023/08/25 07:44:36;;;;;;;4.15;2.05;;;22.20;99.90;;;;;;5093243;28;20016;-77
2023/08/25 07:47:04;;;;;;;0.05;0.05;;;22.40;99.90;;;;;;5090278;28;20020;-76
2023/08/25 07:49:30;;;;;;;4.40;4.00;;;22.20;99.90;;;;;;5087630;28;20020;-72
2023/08/25 07:51:55;;;;;;;0.00;0.00;;;21.80;99.90;;;;;;5092023;28;20481;-77
2023/08/25 07:54:21;;;;;;;0.00;0.00;;;21.80;99.90;;;;;;5089233;28;20036;-77
2023/08/25 07:56:47;;;;;;;1.27;1.08;;;22.10;99.90;;;;;;5084137;28;20480;-78
2023/08/25 07:59:13;;;;;;;1.50;1.40;;;22.50;99.90;;;;;;5082015;28;20103;-76
2023/08/25 08:01:38;;;;;;;1.58;1.48;;;22.50;99.90;;;;;;5091875;28;20024;-80
2023/08/25 08:04:04;;;;;;;1.40;1.10;;;22.30;99.90;;;;;;5092965;28;20480;-82
2023/08/25 08:06:30;;;;;;;6.53;2.90;;;22.30;99.90;;;;;;5090712;28;20035;-83
2023/08/25 08:08:56;;;;;;;0.20;0.20;;;21.90;99.90;;;;;;5095143;28;20052;-78
2023/08/25 08:11:22;;;;;;;10.23;4.05;;;22.00;99.90;;;;;;5090483;28;20016;-75
2023/08/25 08:13:47;;;;;;;3.80;1.85;;;21.90;99.90;;;;;;5087882;28;20658;-76
2023/08/25 08:16:13;;;;;;;4.10;2.35;;;21.90;99.90;;;;;;5091556;28;20032;-76
2023/08/25 08:18:39;;;;;;;0.15;0.15;;;21.90;99.90;;;;;;5090046;28;20100;-77
2023/08/25 08:21:05;;;;;;;0.00;0.00;;;22.10;99.90;;;;;;5085199;28;20476;-76
2023/08/25 08:23:31;;;;;;;2.13;0.63;;;22.30;99.90;;;;;;5091383;28;20056;-76
2023/08/25 08:25:58;;;;;;;1.95;1.60;;;22.50;99.90;;;;;;5091318;28;20098;-76
2023/08/25 08:28:24;;;;;;;4.38;2.75;;;22.50;99.90;;;;;;5090359;28;20031;-76
2023/08/25 08:30:50;;;;;;;6.20;3.53;;;22.70;99.90;;;;;;5092833;28;20028;-77
2023/08/25 08:33:15;;;;;;;0.10;0.10;;;22.70;99.90;;;;;;5092816;28;20028;-76
2023/08/25 08:35:41;;;;;;;7.82;4.30;;;22.60;99.90;;;;;;5091648;28;20069;-74
2023/08/25 08:38:07;;;;;;;19.70;5.25;;;22.30;99.90;;;;;;5082899;28;20016;-72
2023/08/25 08:40:35;;;;;;;7.40;3.25;;;22.30;99.90;;;;;;5082532;28;20056;-75
2023/08/25 08:43:04;;;;;;;0.20;0.20;;;22.30;99.90;;;;;;5092344;28;20024;-75
2023/08/25 08:45:38;;;;;;;0.55;0.55;;;22.40;99.90;;;;;;5094448;28;20122;-76
2023/08/25 08:48:07;;;;;;;7.32;2.83;;;22.60;99.90;;;;;;5094928;28;20055;-75
2023/08/25 08:50:34;;;;;;;0.98;0.95;;;22.60;99.90;;;;;;5094514;28;20023;-76
2023/08/25 08:53:01;;;;;;;0.52;0.52;;;22.90;99.90;;;;;;5096691;28;20112;-77
2023/08/25 08:55:27;;;;;;;5.88;3.45;;;22.60;99.90;;;;;;5091672;28;20077;-77
2023/08/25 08:57:53;;;;;;;0.52;0.52;;;22.40;99.90;;;;;;5096434;28;20105;-80
2023/08/25 09:00:20;;;;;;;0.03;0.03;;;22.60;99.90;;;;;;5092668;28;20480;-77
2023/08/25 09:02:51;;;;;;;1.38;1.27;;;23.00;99.90;;;;;;5093242;28;20379;-73
2023/08/25 09:05:21;;;;;;;1.37;1.27;;;22.90;99.90;;;;;;5091514;28;20036;-75
2023/08/25 09:07:53;;;;;;;5.18;2.38;;;23.00;99.90;;;;;;5097171;28;20032;-75
2023/08/25 09:10:19;;;;;;;15.45;2.40;;;23.50;99.90;;;;;;5087666;28;20123;-76
2023/08/25 09:12:44;;;;;;;7.95;3.65;;;23.90;99.90;;;;;;5092210;28;20520;-77
2023/08/25 09:15:25;;;;;;;4.50;3.95;;;23.10;99.90;;;;;;5093405;28;20430;-76
2023/08/25 09:18:03;;;;;;;4.07;3.40;;;23.00;99.90;;;;;;5090597;28;20023;-77
2023/08/25 09:20:39;;;;;;;7.03;2.13;;;22.90;99.90;;;;;;5083402;28;20769;-76
2023/08/25 09:23:06;;;;;;;8.38;2.60;;;23.30;99.90;;;;;;5094830;28;20415;-76
2023/08/25 09:25:32;;;;;;;2.47;1.95;;;24.00;99.90;;;;;;5098002;28;20379;-74
2023/08/25 09:27:59;;;;;;;11.35;8.60;;;24.60;99.90;;;;;;5092294;28;20095;-77
2023/08/25 09:30:35;;;;;;;6.43;4.22;;;24.60;99.90;;;;;;5093790;28;20609;-77
2023/08/25 09:33:09;;;;;;;3.72;1.40;;;24.50;99.90;;;;;;5095976;28;20028;-77
2023/08/25 09:35:36;;;;;;;0.08;0.08;;;24.80;99.90;;;;;;5094715;28;20044;-77
2023/08/25 09:38:02;;;;;;;24.05;8.60;;;24.10;99.90;;;;;;5096253;28;20498;-77
2023/08/25 09:40:29;;;;;;;10.25;6.38;;;24.00;99.90;;;;;;5091987;28;20043;-77
2023/08/25 09:43:03;;;;;;;11.00;6.63;;;23.50;99.90;;;;;;5089979;28;20023;-75
2023/08/25 09:45:31;;;;;;;1.35;1.25;;;23.50;99.90;;;;;;5084384;28;20489;-76
2023/08/25 09:48:13;;;;;;;0.10;0.10;;;23.80;99.90;;;;;;5094011;28;20034;-72
2023/08/25 09:50:43;;;;;;;11.40;7.25;;;24.40;99.90;;;;;;5090119;28;20081;-71
2023/08/25 09:53:13;;;;;;;2.55;2.00;;;25.00;99.90;;;;;;5088159;28;20107;-72
2023/08/25 09:55:40;;;;;;;5.57;4.03;;;25.20;99.90;;;;;;5092688;28;20043;-72
2023/08/25 09:58:12;;;;;;;3.80;2.75;;;24.70;99.90;;;;;;5095217;28;20016;-71
2023/08/25 10:00:39;;;;;;;3.88;2.88;;;24.50;99.90;;;;;;5090150;28;20032;-71
2023/08/25 10:03:10;;;;;;;3.50;1.30;;;23.90;99.90;;;;;;5103239;28;20103;-71
2023/08/25 10:05:41;;;;;;;0.75;0.52;;;24.10;99.90;;;;;;5106085;28;20070;-73
2023/08/25 10:08:10;;;;;;;1.15;0.98;;;24.70;99.90;;;;;;5104634;28;20454;-75
2023/08/25 10:10:37;;;;;;;0.75;0.75;;;24.90;99.90;;;;;;5107476;28;20039;-78
2023/08/25 10:13:04;;;;;;;1.85;1.75;;;24.70;99.90;;;;;;5102093;28;20024;-71
2023/08/25 10:15:31;;;;;;;8.25;4.95;;;24.30;99.90;;;;;;5100681;28;20045;-76
2023/08/25 10:18:02;;;;;;;9.68;4.28;;;24.00;99.90;;;;;;5107970;27;20386;-79
2023/08/25 10:20:31;;;;;;;1.00;1.00;;;24.00;99.90;;;;;;5111600;28;20028;-78
2023/08/25 10:22:57;;;;;;;3.75;3.28;;;24.40;99.90;;;;;;5107788;28;20027;-76
2023/08/25 10:25:27;;;;;;;1.55;1.40;;;24.10;99.90;;;;;;5094881;28;20043;-78
2023/08/25 10:27:55;;;;;;;0.10;0.10;;;24.30;99.90;;;;;;5103823;28;20028;-76
2023/08/25 10:30:21;;;;;;;1.58;1.45;;;24.30;99.90;;;;;;5111655;27;20016;-77
2023/08/25 10:32:49;;;;;;;0.95;0.95;;;24.70;99.90;;;;;;5098628;28;20080;-76
2023/08/25 10:35:15;;;;;;;10.57;4.22;;;24.90;99.90;;;;;;5096661;28;20395;-77
2023/08/25 10:37:40;;;;;;;4.05;1.02;;;24.90;99.90;;;;;;5092690;28;20032;-76
2023/08/25 10:40:10;;;;;;;4.60;3.00;;;24.60;99.90;;;;;;5095486;28;20023;-77
2023/08/25 10:42:36;;;;;;;3.40;1.45;;;24.60;99.90;;;;;;5098919;28;20030;-76
2023/08/25 10:45:06;;;;;;;2.92;0.82;;;24.60;99.90;;;;;;5099622;28;20028;-73
2023/08/25 10:47:32;;;;;;;12.02;7.03;;;24.60;99.90;;;;;;5095700;28;20059;-76
2023/08/25 10:50:03;;;;;;;0.77;0.77;;;23.70;99.90;;;;;;5093341;28;20055;-76
2023/08/25 10:52:29;;;;;;;2.08;1.45;;;23.60;99.90;;;;;;5090782;28;20039;-76
2023/08/25 10:54:55;;;;;;;24.70;6.18;;;23.50;99.90;;;;;;5103425;28;20028;-77
2023/08/25 10:57:27;;;;;;;1.33;1.23;;;23.30;99.90;;;;;;5096859;28;21065;-76
2023/08/25 10:59:56;;;;;;;;;;;23.30;99.90;;;;;;5094360;28;20489;-77
2023/08/25 11:02:37;;;;;;;2.42;2.20;;;23.40;99.90;;;;;;5090302;28;19908;-76
2023/08/25 11:05:34;;;;;;;17.35;4.95;;;23.30;99.90;;;;;;5102029;28;20471;-77
2023/08/25 11:08:04;;;;;;;15.60;6.75;;;23.40;99.90;;;;;;5080244;28;20032;-77
2023/08/25 11:10:35;;;;;;;6.43;3.58;;;22.90;99.90;;;;;;5103643;28;20077;-76
2023/08/25 11:13:07;;;;;;;0.45;0.45;;;22.80;99.90;;;;;;5084118;28;20038;-72
2023/08/25 11:15:39;;;;;;;0.60;0.55;;;23.30;99.90;;;;;;5092332;28;20051;-76
2023/08/25 11:18:05;;;;;;;5.78;3.28;;;23.20;99.90;;;;;;5104623;28;20473;-76
2023/08/25 11:20:31;;;;;;;5.25;1.67;;;23.10;99.90;;;;;;5105147;28;20070;-76
2023/08/25 11:22:58;;;;;;;11.93;6.88;;;23.30;99.90;;;;;;5096944;28;20491;-74
2023/08/25 11:25:25;;;;;;;14.35;11.43;;;23.00;99.90;;;;;;5093258;28;20034;-76
2023/08/25 11:27:52;;;;;;;22.63;11.43;;;22.70;99.90;;;;;;5105942;28;20490;-76
2023/08/25 11:30:19;;;;;;;6.22;3.97;;;22.90;99.90;;;;;;5101001;28;20028;-77
2023/08/25 11:32:46;;;;;;;18.55;5.18;;;23.30;99.90;;;;;;5098457;28;20039;-77
2023/08/25 11:35:13;;;;;;;6.05;3.47;;;23.60;99.90;;;;;;5086942;28;20032;-76
2023/08/25 11:37:39;;;;;;;15.98;8.50;;;24.40;99.90;;;;;;5089427;28;20551;-77
2023/08/25 11:40:12;;;;;;;9.05;5.60;;;24.60;99.90;;;;;;5095571;28;20020;-77
2023/08/25 11:42:39;;;;;;;16.73;5.53;;;25.00;99.90;;;;;;5089617;28;20525;-76
2023/08/25 11:45:09;;;;;;;28.30;8.98;;;25.40;99.90;;;;;;5093303;28;20012;-76
2023/08/25 11:47:35;;;;;;;11.90;7.03;;;26.00;99.90;;;;;;5092306;28;20020;-79
2023/08/25 11:50:03;;;;;;;4.00;2.88;;;25.70;99.90;;;;;;5091526;28;20053;-78
2023/08/25 11:52:29;;;;;;;13.57;8.23;;;25.50;99.90;;;;;;5084682;28;20057;-76
2023/08/25 11:54:55;;;;;;;4.32;3.38;;;25.80;99.90;;;;;;5098651;28;20516;-77
2023/08/25 11:57:20;;;;;;;4.38;2.40;;;26.00;99.90;;;;;;5092614;28;20119;-76
2023/08/25 11:59:47;;;;;;;4.97;3.55;;;26.00;99.90;;;;;;5093612;28;20494;-76
2023/08/25 12:02:18;;;;;;;1.85;1.33;;;26.30;99.90;;;;;;5105597;28;20020;-76
2023/08/25 12:04:55;;;;;;;9.25;6.20;;;25.80;99.90;;;;;;5103661;28;20042;-74
2023/08/25 12:07:22;;;;;;;10.63;4.07;;;25.10;99.90;;;;;;5107980;28;20036;-76
2023/08/25 12:09:53;;;;;;;1.38;1.27;;;24.90;99.90;;;;;;5102261;28;20115;-76
2023/08/25 12:12:19;;;;;;;0.28;0.22;;;24.60;99.90;;;;;;5103373;28;20027;-76
2023/08/25 12:14:45;;;;;;;0.98;0.73;;;24.50;99.90;;;;;;5095906;28;20032;-75
2023/08/25 12:17:24;;;;;;;7.63;3.50;;;24.60;99.90;;;;;;5106454;28;20104;-76
2023/08/25 12:19:50;;;;;;;8.18;3.75;;;24.30;99.90;;;;;;5100766;28;20060;-75
2023/08/25 12:22:16;;;;;;;4.25;2.63;;;23.90;99.90;;;;;;5105649;28;20028;-76
2023/08/25 12:24:42;;;;;;;2.92;1.55;;;23.50;99.90;;;;;;5098727;28;20028;-75
2023/08/25 12:27:08;;;;;;;0.43;0.43;;;23.50;99.90;;;;;;5105872;28;20024;-76
2023/08/25 12:29:34;;;;;;;0.80;0.20;;;23.60;99.90;;;;;;5107654;28;20035;-72
2023/08/25 12:32:00;;;;;;;0.20;0.20;;;23.70;99.90;;;;;;5104673;28;20030;-76
2023/08/25 12:34:26;;;;;;;0.30;0.25;;;24.10;99.90;;;;;;5103968;28;20116;-74
2023/08/25 12:36:52;;;;;;;0.75;0.75;;;24.80;99.90;;;;;;5096473;28;20020;-75
2023/08/25 12:39:20;;;;;;;0.20;0.20;;;25.30;99.90;;;;;;5107583;28;20028;-74
2023/08/25 12:41:46;;;;;;;1.95;1.08;;;25.80;99.90;;;;;;5110081;28;20345;-76
2023/08/25 12:44:12;;;;;;;18.20;4.32;;;24.70;99.90;;;;;;5102648;28;20031;-73
2023/08/25 12:46:39;;;;;;;0.75;0.75;;;24.60;99.90;;;;;;5088143;28;20024;-71